Time;durP1;ratioP1;P1;durP2;ratioP2;P2;SDS_P1;SDS_P2;PMS_P1;PMS_P2;Temp;Humidity;BMP_temperature;BMP_pressure;BME280_temperature;BME280_humidity;BME280_pressure;Samples;Min_cycle;Max_cycle;Signal;HPM_P1;HPM_P2
2021/12/08 00:00:53;;;;;;;8.27;4.37;;;1.10;65.00;;;;;;4967142;28;20041;-80
2021/12/08 00:03:20;;;;;;;3.87;2.70;;;1.00;64.50;;;;;;4988738;28;20025;-80
2021/12/08 00:05:46;;;;;;;5.90;3.67;;;1.00;64.70;;;;;;4969912;28;20022;-80
2021/12/08 00:08:15;;;;;;;6.27;2.23;;;1.00;64.80;;;;;;4977411;28;20403;-80
2021/12/08 00:13:18;;;;;;;7.77;2.53;;;1.10;64.70;;;;;;4985071;28;20053;-81
2021/12/08 00:15:47;;;;;;;4.77;2.40;;;1.00;64.60;;;;;;4980132;28;20034;-80
2021/12/08 00:18:16;;;;;;;2.63;1.37;;;1.00;64.80;;;;;;4965393;28;20494;-80
2021/12/08 00:20:46;;;;;;;4.43;2.47;;;1.10;64.80;;;;;;4982581;28;20022;-80
2021/12/08 00:23:12;;;;;;;8.87;4.63;;;1.00;64.50;;;;;;4970960;28;20023;-80
2021/12/08 00:25:38;;;;;;;13.40;6.90;;;1.00;64.60;;;;;;4973225;28;20037;-81
2021/12/08 00:28:06;;;;;;;13.67;7.13;;;0.80;64.90;;;;;;4972556;28;20437;-80
2021/12/08 00:30:33;;;;;;;11.37;7.13;;;0.80;65.00;;;;;;4987800;28;20117;-80
2021/12/08 00:33:00;;;;;;;11.10;6.30;;;0.70;64.90;;;;;;4988565;28;20422;-80
2021/12/08 00:35:27;;;;;;;12.30;5.30;;;0.70;64.80;;;;;;4977743;28;20376;-80
2021/12/08 00:37:57;;;;;;;10.37;6.03;;;0.70;64.80;;;;;;4970920;28;20042;-80
2021/12/08 00:40:24;;;;;;;12.00;7.30;;;0.60;65.10;;;;;;4978345;28;20085;-80
2021/12/08 00:42:50;;;;;;;12.80;7.67;;;0.60;65.10;;;;;;4976759;28;20305;-80
2021/12/08 00:45:17;;;;;;;9.90;6.10;;;0.60;65.30;;;;;;4962193;28;20109;-80
2021/12/08 00:47:44;;;;;;;13.03;7.47;;;0.50;65.30;;;;;;4974684;28;20120;-80
2021/12/08 00:50:12;;;;;;;12.63;8.37;;;0.50;65.40;;;;;;4957092;28;20185;-80
2021/12/08 00:52:38;;;;;;;14.47;8.83;;;0.60;65.70;;;;;;4972052;28;20038;-80
2021/12/08 00:55:07;;;;;;;11.97;7.63;;;0.50;65.20;;;;;;4980236;28;20046;-80
2021/12/08 00:57:33;;;;;;;13.33;8.07;;;0.40;65.20;;;;;;4978816;28;20278;-80
2021/12/08 01:00:02;;;;;;;11.03;6.83;;;0.40;65.30;;;;;;4965054;28;20281;-80
2021/12/08 01:02:27;;;;;;;12.47;7.40;;;0.40;65.50;;;;;;4965899;28;20277;-80
2021/12/08 01:04:53;;;;;;;14.13;8.13;;;0.40;65.20;;;;;;4972227;28;20041;-80
2021/12/08 01:07:19;;;;;;;16.23;8.00;;;0.40;65.30;;;;;;4978684;28;20687;-80
2021/12/08 01:09:46;;;;;;;14.47;8.07;;;0.30;65.30;;;;;;4977911;28;20560;-80
2021/12/08 01:12:12;;;;;;;13.37;8.10;;;0.30;65.20;;;;;;4961566;28;20459;-80
2021/12/08 01:14:38;;;;;;;17.30;9.17;;;0.20;65.50;;;;;;4980690;28;20293;-80
2021/12/08 01:17:06;;;;;;;13.93;9.07;;;0.20;65.40;;;;;;4977361;28;20033;-80
2021/12/08 01:19:32;;;;;;;14.47;9.20;;;0.20;65.30;;;;;;4988021;28;20034;-81
2021/12/08 01:21:58;;;;;;;15.33;8.70;;;0.10;65.30;;;;;;4981474;28;20378;-80
2021/12/08 01:24:24;;;;;;;9.60;6.07;;;0.10;65.40;;;;;;4986948;28;20347;-80
2021/12/08 01:26:50;;;;;;;6.87;4.20;;;0.10;65.60;;;;;;4981984;28;20293;-80
2021/12/08 01:29:16;;;;;;;3.83;2.37;;;0.20;65.60;;;;;;4962546;28;20058;-80
2021/12/08 01:31:43;;;;;;;7.67;3.50;;;0.30;65.40;;;;;;4978162;28;20042;-80
2021/12/08 01:34:11;;;;;;;9.33;6.37;;;0.20;65.40;;;;;;4980729;28;20073;-80
2021/12/08 01:36:38;;;;;;;12.93;7.00;;;0.20;65.40;;;;;;4981279;28;20482;-80
2021/12/08 01:39:05;;;;;;;11.30;7.27;;;0.20;65.40;;;;;;4958597;28;20685;-80
2021/12/08 01:41:31;;;;;;;11.67;7.37;;;0.10;65.40;;;;;;4985944;28;20278;-80
2021/12/08 01:46:41;;;;;;;7.43;3.50;;;0.10;65.60;;;;;;4984473;28;20122;-80
2021/12/08 01:49:07;;;;;;;6.50;3.57;;;0.20;66.00;;;;;;4982585;28;20364;-80
2021/12/08 01:51:33;;;;;;;8.87;4.37;;;0.30;65.70;;;;;;4992031;28;20394;-80
2021/12/08 01:54:02;;;;;;;6.43;3.43;;;0.40;65.70;;;;;;4957480;28;20290;-80
2021/12/08 01:56:29;;;;;;;3.80;1.47;;;0.40;65.70;;;;;;4979121;28;20053;-80
2021/12/08 01:58:55;;;;;;;8.90;4.13;;;0.40;65.80;;;;;;4984349;28;20277;-80
2021/12/08 02:01:25;;;;;;;6.07;3.43;;;0.40;65.90;;;;;;4966522;28;20205;-80
2021/12/08 02:03:51;;;;;;;4.83;2.70;;;0.40;65.90;;;;;;4966139;28;20022;-80
2021/12/08 02:06:19;;;;;;;5.53;3.10;;;0.50;66.00;;;;;;4969264;28;20276;-80
2021/12/08 02:08:45;;;;;;;4.10;2.30;;;0.60;66.10;;;;;;4983160;28;20109;-80
2021/12/08 02:11:11;;;;;;;3.83;2.07;;;0.70;66.00;;;;;;4980362;28;20038;-80
2021/12/08 02:13:39;;;;;;;5.90;3.37;;;0.70;65.90;;;;;;4979656;28;20366;-80
2021/12/08 02:16:09;;;;;;;7.47;4.20;;;0.70;65.40;;;;;;4977132;28;20030;-80
2021/12/08 02:18:36;;;;;;;8.90;5.87;;;0.60;65.40;;;;;;4961593;28;20094;-80
2021/12/08 02:21:29;;;;;;;9.90;5.80;;;0.50;65.50;;;;;;4982798;28;20456;-80
2021/12/08 02:24:04;;;;;;;6.70;4.77;;;0.40;65.50;;;;;;4981416;28;20113;-80
2021/12/08 02:26:31;;;;;;;4.70;1.97;;;0.40;65.70;;;;;;4982273;28;20085;-80
2021/12/08 02:29:01;;;;;;;2.77;1.33;;;0.40;65.70;;;;;;5000258;28;20108;-80
2021/12/08 02:32:06;;;;;;;2.13;1.00;;;0.40;65.70;;;;;;4968205;28;20285;-80
2021/12/08 02:48:02;;;;;;;4.83;1.50;;;0.40;65.70;;;;;;4981466;28;20066;-80
2021/12/08 02:50:33;;;;;;;3.53;1.70;;;0.50;66.00;;;;;;4961284;28;20348;-80
2021/12/08 02:53:00;;;;;;;2.43;1.67;;;0.50;65.80;;;;;;4992807;28;20034;-80
2021/12/08 02:55:27;;;;;;;2.23;1.30;;;0.50;66.60;;;;;;4976961;28;20049;-80
2021/12/08 02:57:53;;;;;;;3.47;1.50;;;0.60;66.60;;;;;;4987676;28;20057;-80
2021/12/08 03:00:24;;;;;;;3.03;1.50;;;0.80;66.20;;;;;;4967210;28;20120;-80
2021/12/08 03:02:51;;;;;;;3.43;1.37;;;0.90;66.30;;;;;;4969877;28;20022;-80
2021/12/08 03:05:17;;;;;;;2.87;1.20;;;1.10;66.40;;;;;;4969756;28;20031;-80
2021/12/08 03:07:43;;;;;;;2.97;2.00;;;1.40;66.50;;;;;;4983161;28;20026;-80
2021/12/08 03:10:13;;;;;;;6.50;1.47;;;1.50;65.80;;;;;;4966456;28;20033;-80
2021/12/08 03:12:40;;;;;;;2.90;1.57;;;1.50;65.70;;;;;;4980018;28;20482;-80
2021/12/08 03:15:07;;;;;;;2.00;0.90;;;1.60;65.70;;;;;;4967792;28;20030;-80
2021/12/08 03:17:35;;;;;;;3.13;1.60;;;1.70;65.50;;;;;;4980576;28;20391;-80
2021/12/08 03:20:06;;;;;;;2.00;1.17;;;1.60;65.30;;;;;;4965398;28;20042;-80
2021/12/08 03:22:35;;;;;;;3.53;1.33;;;1.80;66.10;;;;;;4986813;28;20575;-80
2021/12/08 03:25:05;;;;;;;6.57;1.30;;;1.90;65.80;;;;;;4972103;28;20026;-80
2021/12/08 03:27:36;;;;;;;4.73;1.50;;;1.90;65.70;;;;;;4972682;28;20117;-80
2021/12/08 03:30:17;;;;;;;3.58;1.38;;;2.10;66.10;;;;;;4985688;28;20038;-81
2021/12/08 03:32:43;;;;;;;3.67;1.17;;;2.10;65.70;;;;;;4966276;28;20031;-80
2021/12/08 03:35:13;;;;;;;2.70;1.30;;;2.20;65.40;;;;;;4983012;28;20534;-80
2021/12/08 03:37:42;;;;;;;4.13;1.47;;;2.20;65.10;;;;;;4987334;28;20073;-80
2021/12/08 03:40:12;;;;;;;1.80;1.00;;;2.10;64.70;;;;;;4984164;28;20041;-81
2021/12/08 03:42:39;;;;;;;3.03;1.30;;;2.10;65.30;;;;;;4989132;28;20027;-80
2021/12/08 03:45:16;;;;;;;5.93;1.60;;;2.30;64.70;;;;;;4962940;28;20046;-80
2021/12/08 03:47:44;;;;;;;3.50;1.60;;;2.30;64.30;;;;;;4968555;28;20040;-81
2021/12/08 03:50:14;;;;;;;5.67;3.40;;;2.30;64.40;;;;;;4989973;28;20030;-80
2021/12/08 03:52:40;;;;;;;6.97;4.20;;;2.10;64.10;;;;;;4985734;28;20073;-80
2021/12/08 03:55:10;;;;;;;7.77;4.40;;;1.80;64.20;;;;;;4980200;28;20050;-81
2021/12/08 03:57:36;;;;;;;7.60;5.00;;;1.50;64.40;;;;;;4981335;28;20029;-80
2021/12/08 04:00:08;;;;;;;8.63;5.10;;;1.40;64.90;;;;;;4986233;28;20101;-80
2021/12/08 04:02:35;;;;;;;8.98;5.03;;;1.40;65.00;;;;;;4991181;28;20029;-80
2021/12/08 04:05:02;;;;;;;6.60;4.43;;;1.40;65.00;;;;;;4975423;28;20038;-80
2021/12/08 04:07:28;;;;;;;5.93;4.23;;;1.40;65.20;;;;;;4966074;28;20109;-80
2021/12/08 04:09:54;;;;;;;6.57;3.60;;;1.40;65.00;;;;;;4986983;28;20109;-80
2021/12/08 04:12:21;;;;;;;6.30;4.03;;;1.30;65.00;;;;;;4962356;28;20031;-80
2021/12/08 04:14:57;;;;;;;3.70;2.60;;;1.40;65.30;;;;;;4989114;28;20054;-81
2021/12/08 04:17:31;;;;;;;5.13;1.90;;;1.40;65.20;;;;;;4959061;28;20018;-80
2021/12/08 04:20:03;;;;;;;5.00;1.57;;;1.40;64.90;;;;;;4983853;28;20027;-81
2021/12/08 04:22:36;;;;;;;8.13;3.53;;;1.40;65.10;;;;;;4968092;28;20026;-81
2021/12/08 04:25:06;;;;;;;8.90;5.38;;;1.40;65.00;;;;;;4980959;28;20094;-81
2021/12/08 04:27:37;;;;;;;7.67;4.53;;;1.40;64.90;;;;;;4985704;28;20390;-81
2021/12/08 04:30:07;;;;;;;7.73;4.13;;;1.40;64.90;;;;;;4970014;28;20066;-81
2021/12/08 04:32:33;;;;;;;8.87;3.03;;;1.30;65.10;;;;;;4983176;28;20026;-81
2021/12/08 04:35:01;;;;;;;8.13;3.37;;;1.30;65.10;;;;;;4992830;28;20030;-81
2021/12/08 04:37:31;;;;;;;10.67;5.53;;;1.40;65.20;;;;;;4989292;28;20054;-81
2021/12/08 04:40:32;;;;;;;7.53;4.77;;;1.40;65.10;;;;;;4979941;28;20042;-81
2021/12/08 04:43:14;;;;;;;7.67;5.63;;;1.40;65.20;;;;;;4987495;28;20031;-81
2021/12/08 04:46:11;;;;;;;13.77;6.60;;;1.40;65.20;;;;;;4966012;28;20473;-81
2021/12/08 04:52:16;;;;;;;13.90;9.57;;;1.40;65.10;;;;;;4979023;28;20958;-81
2021/12/08 05:06:16;;;;;;;54.20;29.90;;;1.20;65.60;;;;;;4982135;28;20386;-81
2021/12/08 05:08:43;;;;;;;23.90;12.90;;;1.20;65.50;;;;;;4982302;28;20040;-81
2021/12/08 05:11:14;;;;;;;19.97;10.27;;;1.20;65.70;;;;;;4964106;28;20026;-81
2021/12/08 05:13:41;;;;;;;15.03;8.47;;;1.10;65.70;;;;;;4978748;28;20026;-81
2021/12/08 05:16:08;;;;;;;14.13;8.20;;;1.10;65.70;;;;;;4960530;28;20438;-81
2021/12/08 05:18:41;;;;;;;11.70;6.87;;;1.10;66.00;;;;;;4965274;28;20022;-81
2021/12/08 05:21:16;;;;;;;10.10;6.00;;;1.10;66.10;;;;;;4985354;28;20027;-81
2021/12/08 05:23:44;;;;;;;15.60;7.67;;;1.10;65.90;;;;;;4973106;28;20441;-81
2021/12/08 05:26:15;;;;;;;31.37;13.43;;;1.20;66.10;;;;;;4992099;28;20508;-81
2021/12/08 05:28:44;;;;;;;30.67;12.60;;;1.20;66.00;;;;;;4979012;28;20023;-81
2021/12/08 05:31:17;;;;;;;15.97;9.27;;;1.20;66.10;;;;;;4989276;28;20045;-81
2021/12/08 05:33:44;;;;;;;18.03;10.10;;;1.20;66.20;;;;;;4985515;28;20513;-81
2021/12/08 05:36:13;;;;;;;12.00;7.17;;;1.20;66.20;;;;;;4988312;28;20026;-81
2021/12/08 05:38:39;;;;;;;12.50;7.30;;;1.20;66.20;;;;;;4986517;28;20027;-81
2021/12/08 05:41:10;;;;;;;11.23;6.90;;;1.20;66.40;;;;;;4984430;28;20050;-81
2021/12/08 05:43:36;;;;;;;9.33;5.87;;;1.20;66.40;;;;;;4966638;28;20033;-81
2021/12/08 05:46:04;;;;;;;12.67;6.50;;;1.20;66.30;;;;;;4966024;28;20372;-81
2021/12/08 05:48:32;;;;;;;12.17;7.27;;;1.20;66.20;;;;;;4985636;28;20505;-81
2021/12/08 05:51:08;;;;;;;11.13;6.73;;;1.30;66.40;;;;;;4970590;28;20026;-81
2021/12/08 05:53:36;;;;;;;11.57;6.13;;;1.30;66.50;;;;;;4968305;28;20534;-81
2021/12/08 05:56:04;;;;;;;10.73;6.97;;;1.30;66.40;;;;;;4965280;28;20101;-81
2021/12/08 05:58:30;;;;;;;11.53;6.40;;;1.30;66.40;;;;;;4971338;28;20114;-81
2021/12/08 06:01:07;;;;;;;10.67;6.83;;;1.30;66.40;;;;;;4968821;28;20110;-81
2021/12/08 06:03:34;;;;;;;12.47;7.87;;;1.30;66.40;;;;;;4967646;28;20113;-81
2021/12/08 06:06:04;;;;;;;16.77;9.93;;;1.30;66.30;;;;;;4990207;28;20065;-81
2021/12/08 06:08:31;;;;;;;18.97;10.53;;;1.40;66.50;;;;;;4983929;28;20421;-82
2021/12/08 06:10:59;;;;;;;16.00;9.07;;;1.40;66.50;;;;;;4961668;28;20050;-82
2021/12/08 06:13:25;;;;;;;17.50;8.90;;;1.30;66.50;;;;;;4981025;28;20026;-81
2021/12/08 06:15:52;;;;;;;16.93;8.97;;;1.30;66.50;;;;;;4974647;28;20077;-81
2021/12/08 06:18:22;;;;;;;16.23;8.30;;;1.40;66.50;;;;;;4987236;28;20030;-81
2021/12/08 06:20:51;;;;;;;14.20;7.63;;;1.40;66.60;;;;;;4986267;28;20043;-81
2021/12/08 06:23:17;;;;;;;12.17;7.90;;;1.40;66.60;;;;;;4990359;28;20057;-81
2021/12/08 06:25:43;;;;;;;13.27;8.97;;;1.40;66.60;;;;;;4970842;28;20490;-82
2021/12/08 06:28:09;;;;;;;31.97;13.83;;;1.40;66.60;;;;;;4993600;28;20053;-82
2021/12/08 06:30:38;;;;;;;146.13;54.47;;;1.40;66.40;;;;;;4979521;28;20057;-81
2021/12/08 06:33:04;;;;;;;93.03;39.77;;;1.40;66.60;;;;;;4963322;28;20489;-82
2021/12/08 06:35:38;;;;;;;29.33;15.57;;;1.40;66.60;;;;;;4965682;28;20038;-82
2021/12/08 06:38:05;;;;;;;18.77;11.90;;;1.40;66.60;;;;;;4968352;28;20026;-81
2021/12/08 06:40:47;;;;;;;13.90;9.23;;;1.40;66.50;;;;;;4988763;28;20417;-81
2021/12/08 06:43:17;;;;;;;19.95;8.93;;;1.40;66.70;;;;;;4972538;28;20045;-81
2021/12/08 06:45:47;;;;;;;13.20;9.33;;;1.40;66.70;;;;;;4970603;28;20031;-81
2021/12/08 06:48:18;;;;;;;12.53;8.40;;;1.40;66.70;;;;;;4982277;28;20065;-81
2021/12/08 06:50:50;;;;;;;13.63;8.97;;;1.40;66.90;;;;;;4980733;28;20061;-81
2021/12/08 06:53:16;;;;;;;14.20;9.65;;;1.40;66.90;;;;;;4968513;28;20113;-81
2021/12/08 06:55:51;;;;;;;13.27;8.77;;;1.40;66.90;;;;;;4976732;28;20047;-81
2021/12/08 06:58:21;;;;;;;11.40;8.80;;;1.40;67.00;;;;;;4975081;28;20077;-81
2021/12/08 07:01:15;;;;;;;12.83;8.63;;;1.40;66.90;;;;;;4967425;28;20069;-81
2021/12/08 07:04:41;;;;;;;13.63;9.27;;;1.30;66.90;;;;;;4967669;28;20122;-81
2021/12/08 07:06:45;;;;;;;18.00;9.77;;;1.30;66.90;;;;;;4961965;28;20049;-81
2021/12/08 07:09:23;;;;;;;18.17;9.30;;;1.30;66.90;;;;;;4987703;28;20030;-81
2021/12/08 07:11:52;;;;;;;17.73;10.63;;;1.30;67.00;;;;;;4986364;28;20113;-82
2021/12/08 07:14:19;;;;;;;11.63;7.90;;;1.30;67.00;;;;;;4990028;28;20022;-81
2021/12/08 07:16:48;;;;;;;12.93;8.70;;;1.30;66.90;;;;;;4979696;28;20050;-81
2021/12/08 07:19:42;;;;;;;12.97;8.07;;;1.30;67.70;;;;;;4965298;28;20038;-81
2021/12/08 07:22:09;;;;;;;;;;;1.40;67.10;;;;;;4966208;28;20106;-81
2021/12/08 07:24:39;;;;;;;13.07;8.93;;;1.40;67.10;;;;;;4988607;28;20376;-81
2021/12/08 07:27:08;;;;;;;17.40;10.17;;;1.40;67.00;;;;;;4987947;28;20539;-81
2021/12/08 07:29:37;;;;;;;12.80;8.57;;;1.40;67.10;;;;;;4983536;28;20056;-81
2021/12/08 07:32:18;;;;;;;15.27;10.07;;;1.50;67.20;;;;;;4978438;28;20034;-82
2021/12/08 07:34:45;;;;;;;28.60;15.63;;;1.40;67.10;;;;;;4975371;28;20030;-81
2021/12/08 07:37:18;;;;;;;29.73;18.47;;;1.50;67.50;;;;;;4985597;28;20023;-82
2021/12/08 07:39:47;;;;;;;;;;;1.50;67.50;;;;;;4995366;28;20015;-81
2021/12/08 07:42:18;;;;;;;28.50;16.07;;;1.60;67.50;;;;;;4968637;28;19913;-81
2021/12/08 07:44:50;;;;;;;31.37;16.47;;;1.70;67.60;;;;;;4967615;28;20026;-81
2021/12/08 07:47:19;;;;;;;25.80;14.57;;;1.70;67.70;;;;;;4967225;28;20122;-81
2021/12/08 07:49:54;;;;;;;26.87;14.43;;;1.80;68.00;;;;;;4993566;28;20296;-82
2021/12/08 07:52:28;;;;;;;30.30;16.63;;;1.80;67.70;;;;;;4971124;28;20027;-81
2021/12/08 07:54:56;;;;;;;35.40;21.00;;;1.90;67.70;;;;;;4970222;28;20758;-81
2021/12/08 07:57:27;;;;;;;37.83;20.43;;;1.90;67.70;;;;;;4965535;28;20057;-81
2021/12/08 07:59:56;;;;;;;46.27;24.50;;;2.00;67.70;;;;;;4986448;28;20026;-81
2021/12/08 08:02:26;;;;;;;23.83;12.87;;;2.00;67.90;;;;;;4969099;28;20054;-82
2021/12/08 08:04:54;;;;;;;18.77;11.30;;;2.10;67.50;;;;;;4978607;28;20036;-81
2021/12/08 08:07:21;;;;;;;15.83;8.67;;;2.10;67.60;;;;;;4996417;28;20032;-82
2021/12/08 08:09:53;;;;;;;12.90;7.53;;;2.10;67.50;;;;;;4987276;28;20538;-81
2021/12/08 08:12:22;;;;;;;17.70;9.15;;;2.00;67.50;;;;;;4990955;28;20034;-81
2021/12/08 08:14:53;;;;;;;13.07;9.00;;;2.10;67.50;;;;;;4997747;28;20078;-81
2021/12/08 08:17:28;;;;;;;12.83;7.90;;;2.00;67.30;;;;;;4971217;28;20041;-81
2021/12/08 08:19:55;;;;;;;11.60;7.70;;;2.00;67.40;;;;;;4987931;28;20525;-81
2021/12/08 08:22:26;;;;;;;11.60;7.50;;;2.00;67.40;;;;;;4984769;28;20472;-81
2021/12/08 08:24:54;;;;;;;14.03;8.40;;;2.00;67.50;;;;;;4962937;28;20038;-81
2021/12/08 08:27:20;;;;;;;13.10;8.13;;;2.00;67.50;;;;;;4992381;28;20057;-81
2021/12/08 08:29:47;;;;;;;15.57;9.70;;;2.00;67.50;;;;;;4983415;28;20035;-82
2021/12/08 08:32:23;;;;;;;16.07;10.13;;;2.10;67.50;;;;;;4978603;28;20117;-81
2021/12/08 08:34:57;;;;;;;14.50;8.67;;;2.10;67.50;;;;;;4983890;28;20113;-81
2021/12/08 08:37:23;;;;;;;14.27;9.37;;;2.10;67.50;;;;;;4970432;28;20415;-81
2021/12/08 08:39:59;;;;;;;13.73;8.80;;;2.10;67.50;;;;;;4982988;28;20110;-81
2021/12/08 08:42:33;;;;;;;14.93;8.90;;;2.20;67.60;;;;;;4971568;28;20421;-82
2021/12/08 08:45:07;;;;;;;13.27;8.40;;;2.20;67.50;;;;;;4966485;28;20467;-82
2021/12/08 08:47:42;;;;;;;12.87;9.07;;;2.30;67.60;;;;;;4984245;28;20034;-82
2021/12/08 08:50:15;;;;;;;14.47;10.43;;;2.30;67.50;;;;;;4982293;28;20034;-81
2021/12/08 08:52:45;;;;;;;16.27;10.30;;;2.30;67.50;;;;;;4977957;28;20045;-81
2021/12/08 08:55:20;;;;;;;22.67;12.17;;;2.30;67.60;;;;;;4971475;28;20052;-81
2021/12/08 08:57:47;;;;;;;20.43;12.03;;;2.30;67.60;;;;;;4986523;28;20030;-81
2021/12/08 09:00:25;;;;;;;20.77;13.03;;;2.30;67.60;;;;;;4958457;28;20031;-82
2021/12/08 09:02:52;;;;;;;23.27;12.53;;;2.30;67.50;;;;;;4976779;28;20034;-81
2021/12/08 09:05:23;;;;;;;20.37;12.47;;;2.30;67.60;;;;;;4984052;28;20042;-81
2021/12/08 09:07:52;;;;;;;19.83;12.87;;;2.30;67.70;;;;;;4974561;28;20033;-81
2021/12/08 09:10:27;;;;;;;18.33;12.00;;;2.30;67.70;;;;;;4963863;28;20038;-82
2021/12/08 09:13:11;;;;;;;17.77;11.30;;;2.30;67.60;;;;;;4979219;28;20038;-81
2021/12/08 09:15:51;;;;;;;16.73;10.97;;;2.40;67.70;;;;;;4977661;28;20093;-81
2021/12/08 09:18:39;;;;;;;15.83;10.23;;;2.40;67.60;;;;;;4958495;28;20019;-81
2021/12/08 09:21:17;;;;;;;15.00;9.50;;;2.40;67.60;;;;;;4966400;28;20022;-82
2021/12/08 09:23:57;;;;;;;15.10;9.47;;;2.40;67.50;;;;;;4967141;28;20475;-81
2021/12/08 09:26:26;;;;;;;13.20;8.93;;;2.40;67.50;;;;;;4968346;28;20538;-81
2021/12/08 09:28:57;;;;;;;20.37;11.03;;;2.40;67.60;;;;;;4965178;28;20034;-81
2021/12/08 09:31:32;;;;;;;19.20;11.23;;;2.40;67.60;;;;;;4970720;28;20498;-82
2021/12/08 09:34:20;;;;;;;17.20;11.97;;;2.40;67.60;;;;;;4976012;28;20033;-82
2021/12/08 09:37:07;;;;;;;17.03;10.30;;;2.50;67.60;;;;;;4981481;28;20437;-81
2021/12/08 09:39:44;;;;;;;16.87;9.53;;;2.60;67.60;;;;;;4981313;28;20038;-81
2021/12/08 09:42:18;;;;;;;15.17;10.83;;;2.60;67.50;;;;;;4966975;28;20508;-81
2021/12/08 09:44:55;;;;;;;18.20;10.77;;;2.60;67.40;;;;;;4960060;28;20038;-81
2021/12/08 09:47:21;;;;;;;18.50;11.07;;;2.60;67.30;;;;;;4967257;28;20039;-82
2021/12/08 09:49:49;;;;;;;19.67;10.60;;;2.60;67.30;;;;;;4962426;28;20077;-81
2021/12/08 09:52:18;;;;;;;13.53;9.30;;;2.70;67.40;;;;;;4981561;28;20981;-81
2021/12/08 09:54:44;;;;;;;16.80;9.53;;;2.70;67.70;;;;;;4968325;28;20081;-81
2021/12/08 09:57:13;;;;;;;14.10;7.13;;;2.70;67.40;;;;;;4971609;28;20047;-81
2021/12/08 09:59:46;;;;;;;11.43;6.73;;;2.70;67.20;;;;;;4991066;28;20026;-81
2021/12/08 10:02:13;;;;;;;;;;;2.70;66.90;;;;;;4987846;28;20034;-81
2021/12/08 10:04:38;;;;;;;19.93;12.60;;;2.80;66.90;;;;;;4985020;28;19910;-81
2021/12/08 10:07:05;;;;;;;22.33;11.90;;;2.80;66.70;;;;;;4983021;28;20026;-81
2021/12/08 10:09:32;;;;;;;17.80;11.47;;;2.80;66.80;;;;;;4968777;28;20062;-81
2021/12/08 10:11:58;;;;;;;18.70;11.87;;;2.80;66.80;;;;;;4975208;28;20036;-81
2021/12/08 10:14:25;;;;;;;20.10;12.47;;;2.90;67.40;;;;;;4982226;28;20026;-81
2021/12/08 10:16:53;;;;;;;17.90;11.57;;;2.90;66.90;;;;;;4961827;28;20027;-81
2021/12/08 10:19:19;;;;;;;18.83;11.77;;;2.90;67.00;;;;;;4966432;28;20082;-82
2021/12/08 10:21:46;;;;;;;17.63;11.80;;;2.90;66.90;;;;;;4985075;28;20061;-82
2021/12/08 10:24:19;;;;;;;17.93;11.13;;;3.00;66.90;;;;;;4983780;28;20042;-82
2021/12/08 10:26:46;;;;;;;17.88;12.80;;;3.00;67.00;;;;;;4993933;28;20030;-81
2021/12/08 10:29:13;;;;;;;23.53;15.13;;;3.10;67.10;;;;;;4969927;28;20031;-82
2021/12/08 10:31:48;;;;;;;25.03;16.97;;;3.20;67.00;;;;;;4972404;28;20058;-82
2021/12/08 10:36:45;;;;;;;42.03;29.43;;;3.30;66.70;;;;;;4992188;28;20030;-82
2021/12/08 10:39:22;;;;;;;73.37;55.67;;;3.30;66.80;;;;;;4979406;28;20026;-82
2021/12/08 10:41:57;;;;;;;41.33;32.10;;;3.30;66.70;;;;;;4969936;28;20126;-81
2021/12/08 10:44:26;;;;;;;26.97;16.43;;;3.40;66.60;;;;;;4982848;28;20041;-81
2021/12/08 10:46:57;;;;;;;22.70;13.57;;;3.30;66.40;;;;;;4966654;28;20460;-82
2021/12/08 10:54:44;;;;;;;32.33;14.50;;;3.40;66.80;;;;;;4978892;28;20037;-81
2021/12/08 10:57:30;;;;;;;17.90;10.93;;;3.50;66.50;;;;;;4983422;28;20500;-82
2021/12/08 10:59:58;;;;;;;29.17;14.80;;;3.60;66.60;;;;;;4983693;28;20041;-81
2021/12/08 11:02:38;;;;;;;25.00;16.07;;;3.60;66.40;;;;;;4959441;28;20387;-82
2021/12/08 11:05:06;;;;;;;18.83;13.70;;;3.80;66.30;;;;;;4990300;28;20029;-79
2021/12/08 11:07:32;;;;;;;23.13;13.47;;;4.00;66.40;;;;;;4977249;28;20026;-79
2021/12/08 11:09:58;;;;;;;23.97;14.83;;;4.30;66.30;;;;;;4987011;28;20031;-82
2021/12/08 11:12:42;;;;;;;22.07;14.10;;;4.70;66.60;;;;;;4984154;28;20034;-81
2021/12/08 11:15:28;;;;;;;21.63;13.40;;;5.10;65.40;;;;;;4960852;28;20076;-81
2021/12/08 11:18:13;;;;;;;21.63;13.33;;;5.30;64.20;;;;;;4968749;28;20078;-81
2021/12/08 11:20:47;;;;;;;23.37;15.63;;;5.30;64.00;;;;;;4969189;28;20067;-82
2021/12/08 11:23:16;;;;;;;29.87;18.00;;;5.10;63.60;;;;;;4967882;28;20130;-81
2021/12/08 11:25:47;;;;;;;33.97;18.80;;;5.00;64.00;;;;;;4982995;28;20493;-81
2021/12/08 11:28:29;;;;;;;20.37;13.43;;;4.80;64.10;;;;;;4985884;28;20105;-81
2021/12/08 11:31:06;;;;;;;33.72;20.38;;;4.80;64.30;;;;;;4963999;28;20040;-81
2021/12/08 11:33:36;;;;;;;47.00;25.73;;;4.80;64.40;;;;;;4980154;28;20035;-81
2021/12/08 11:36:11;;;;;;;28.83;17.33;;;4.80;64.10;;;;;;4962273;28;20105;-81
2021/12/08 11:38:38;;;;;;;20.13;13.17;;;4.80;64.20;;;;;;4973289;28;20022;-81
2021/12/08 11:41:21;;;;;;;24.50;16.70;;;4.80;64.20;;;;;;4974588;28;20150;-82
2021/12/08 11:43:50;;;;;;;;;;;4.90;64.10;;;;;;4972958;28;20033;-81
2021/12/08 11:46:18;;;;;;;25.67;18.43;;;5.20;64.10;;;;;;4975887;28;20373;-82
2021/12/08 11:49:05;;;;;;;24.30;15.83;;;5.40;63.70;;;;;;4961201;28;20492;-81
2021/12/08 11:51:35;;;;;;;24.97;15.73;;;5.50;63.30;;;;;;4965269;28;20622;-81
2021/12/08 11:54:02;;;;;;;22.60;15.87;;;5.50;63.20;;;;;;4991901;28;20029;-82
2021/12/08 11:56:41;;;;;;;18.40;11.40;;;5.40;63.20;;;;;;4925117;28;1172495;-81
2021/12/08 11:59:10;;;;;;;23.43;15.57;;;5.40;63.30;;;;;;4963449;28;20022;-81
2021/12/08 12:01:37;;;;;;;25.50;16.50;;;5.40;63.20;;;;;;4985938;28;20029;-81
2021/12/08 12:04:04;;;;;;;34.27;19.07;;;5.40;63.00;;;;;;4967187;28;20135;-81
2021/12/08 12:06:30;;;;;;;24.53;14.10;;;5.20;62.80;;;;;;4979616;28;20078;-81
2021/12/08 12:08:58;;;;;;;18.60;12.47;;;5.10;63.10;;;;;;4986351;28;20034;-81
2021/12/08 12:11:26;;;;;;;21.33;14.47;;;5.10;63.20;;;;;;4965201;28;20417;-81
2021/12/08 12:13:54;;;;;;;17.60;11.83;;;5.10;63.30;;;;;;4974642;28;20419;-81
2021/12/08 12:16:20;;;;;;;18.27;11.20;;;5.00;63.20;;;;;;4976805;28;20033;-81
2021/12/08 12:18:46;;;;;;;19.70;12.73;;;5.00;63.30;;;;;;4980044;28;20033;-81
2021/12/08 12:21:19;;;;;;;25.33;15.83;;;4.90;63.30;;;;;;4986519;28;20030;-81
2021/12/08 12:24:14;;;;;;;23.83;16.53;;;4.90;63.60;;;;;;4986763;28;20564;-81
2021/12/08 12:26:56;;;;;;;33.17;20.10;;;4.90;63.60;;;;;;4989911;28;20492;-81
2021/12/08 12:29:36;;;;;;;30.20;21.52;;;4.90;63.50;;;;;;4984345;28;20029;-81
2021/12/08 12:32:17;;;;;;;24.23;16.47;;;5.00;63.50;;;;;;4985723;28;20433;-81
2021/12/08 12:34:44;;;;;;;28.60;16.60;;;4.90;63.40;;;;;;4983450;28;20092;-81
2021/12/08 12:37:15;;;;;;;28.97;17.43;;;5.00;63.60;;;;;;4979208;28;20033;-81
2021/12/08 12:39:50;;;;;;;24.57;13.97;;;5.00;63.50;;;;;;4972328;28;20729;-81
2021/12/08 12:42:17;;;;;;;25.80;15.77;;;4.90;63.70;;;;;;4969848;28;20022;-81
2021/12/08 12:45:06;;;;;;;27.03;16.40;;;5.00;63.70;;;;;;4962877;28;20027;-81
2021/12/08 12:47:32;;;;;;;79.77;40.87;;;5.00;63.60;;;;;;4962378;28;20119;-82
2021/12/08 12:50:04;;;;;;;59.13;29.53;;;5.20;63.60;;;;;;4987165;28;20030;-81
2021/12/08 12:52:48;;;;;;;33.97;20.03;;;5.30;63.60;;;;;;4982426;28;20026;-79
2021/12/08 12:55:30;;;;;;;70.77;35.43;;;5.40;63.30;;;;;;4967397;28;20042;-82
2021/12/08 12:58:02;;;;;;;96.40;42.13;;;5.40;63.40;;;;;;4968081;28;20058;-82
2021/12/08 13:00:30;;;;;;;116.55;49.60;;;5.40;63.50;;;;;;4957684;28;20089;-82
2021/12/08 13:02:56;;;;;;;85.37;38.10;;;5.30;63.60;;;;;;4972677;28;20029;-82
2021/12/08 13:05:51;;;;;;;67.70;32.10;;;5.20;63.50;;;;;;4962147;28;20027;-82
2021/12/08 13:08:46;;;;;;;72.50;33.30;;;5.00;63.90;;;;;;4979428;28;20042;-82
2021/12/08 13:11:41;;;;;;;53.70;30.27;;;4.90;64.30;;;;;;4990886;28;20034;-81
2021/12/08 13:14:22;;;;;;;43.47;26.03;;;4.90;64.50;;;;;;4959461;28;20027;-82
2021/12/08 13:17:09;;;;;;;28.10;18.80;;;4.80;64.60;;;;;;4983057;28;20022;-82
2021/12/08 13:19:43;;;;;;;29.13;16.80;;;4.80;64.50;;;;;;4958424;28;20474;-82
2021/12/08 13:22:09;;;;;;;20.47;13.63;;;4.90;64.70;;;;;;4981814;28;20113;-82
2021/12/08 13:24:35;;;;;;;22.53;14.63;;;4.90;64.70;;;;;;4994831;28;20030;-82
2021/12/08 13:27:05;;;;;;;19.27;14.10;;;4.80;64.70;;;;;;4955808;28;20019;-83
2021/12/08 13:29:33;;;;;;;22.03;14.23;;;4.80;64.70;;;;;;4984756;28;20037;-82
2021/12/08 13:32:09;;;;;;;30.40;17.17;;;4.80;64.70;;;;;;4974842;28;20064;-82
2021/12/08 13:34:38;;;;;;;25.80;15.87;;;4.80;64.90;;;;;;4984410;28;20478;-82
2021/12/08 13:37:23;;;;;;;23.00;17.40;;;4.80;65.00;;;;;;4985159;28;20027;-82
2021/12/08 13:39:52;;;;;;;24.33;16.10;;;4.80;65.10;;;;;;4964773;28;20121;-83
2021/12/08 13:42:29;;;;;;;23.40;16.77;;;4.80;65.00;;;;;;5000700;28;20057;-82
2021/12/08 13:45:00;;;;;;;24.43;16.73;;;4.80;64.90;;;;;;4967843;28;20034;-82
2021/12/08 13:47:35;;;;;;;26.23;17.23;;;4.80;65.00;;;;;;4988103;28;20098;-82